Time;durP1;ratioP1;P1;durP2;ratioP2;P2;SDS_P1;SDS_P2;PMS_P1;PMS_P2;Temp;Humidity;BMP_temperature;BMP_pressure;BME280_temperature;BME280_humidity;BME280_pressure;Samples;Min_cycle;Max_cycle;Signal;HPM_P1;HPM_P2
2022/09/02 00:01:18;;;;;;;22.58;21.02;;;14.20;99.90;;;;;;4988952;28;20038;-75
2022/09/02 00:03:46;;;;;;;22.23;20.73;;;14.20;99.90;;;;;;4975353;28;20072;-75
2022/09/02 00:06:14;;;;;;;22.48;20.90;;;14.20;99.90;;;;;;4976567;28;20037;-73
2022/09/02 00:08:41;;;;;;;22.52;20.85;;;14.20;99.90;;;;;;4986777;28;20042;-73
2022/09/02 00:11:13;;;;;;;22.98;21.35;;;14.10;99.90;;;;;;4975738;28;20062;-71
2022/09/02 00:13:41;;;;;;;22.73;21.23;;;14.10;99.90;;;;;;4991026;28;20041;-73
2022/09/02 00:16:09;;;;;;;22.58;21.08;;;14.00;99.90;;;;;;5001560;28;20061;-71
2022/09/02 00:18:37;;;;;;;22.67;21.10;;;14.00;99.90;;;;;;4989200;28;20046;-74
2022/09/02 00:21:04;;;;;;;22.17;20.77;;;14.00;99.90;;;;;;5009345;28;20041;-72
2022/09/02 00:23:32;;;;;;;22.90;21.25;;;14.00;99.90;;;;;;5002785;28;20041;-74
2022/09/02 00:25:59;;;;;;;22.38;20.88;;;14.00;99.90;;;;;;4985505;28;20076;-74
2022/09/02 00:28:25;;;;;;;22.88;20.88;;;14.00;99.90;;;;;;5006022;28;20434;-75
2022/09/02 00:30:52;;;;;;;22.42;21.02;;;13.90;99.90;;;;;;5003314;28;20065;-75
2022/09/02 00:33:19;;;;;;;23.02;21.42;;;14.00;99.90;;;;;;4985762;28;20045;-73
2022/09/02 00:35:45;;;;;;;22.30;20.80;;;14.00;99.90;;;;;;4983325;28;20436;-75
2022/09/02 00:38:12;;;;;;;22.67;21.20;;;14.00;99.90;;;;;;5004350;28;20504;-75
2022/09/02 00:40:48;;;;;;;22.85;21.25;;;14.10;99.90;;;;;;5005360;28;20421;-75
2022/09/02 00:43:45;;;;;;;22.85;21.20;;;14.00;99.90;;;;;;4956838;28;20041;-75
2022/09/02 00:46:16;;;;;;;23.25;21.42;;;14.10;99.90;;;;;;4974176;28;20789;-74
2022/09/02 00:48:58;;;;;;;23.15;21.70;;;14.00;99.90;;;;;;4993774;28;20041;-74
2022/09/02 00:51:30;;;;;;;23.30;21.60;;;14.00;99.90;;;;;;4975453;28;20100;-74
2022/09/02 00:53:58;;;;;;;22.55;21.00;;;13.90;99.90;;;;;;4993655;28;20056;-75
2022/09/02 00:56:29;;;;;;;22.52;20.90;;;13.90;99.90;;;;;;4983005;28;20045;-75
2022/09/02 00:58:56;;;;;;;22.10;20.70;;;13.90;99.90;;;;;;5010499;28;20076;-75
2022/09/02 01:01:24;;;;;;;22.25;20.85;;;13.80;99.90;;;;;;4987625;28;20512;-75
2022/09/02 01:03:51;;;;;;;22.60;21.10;;;13.80;99.90;;;;;;4989992;28;20128;-75
2022/09/02 01:06:23;;;;;;;22.17;20.73;;;13.70;99.90;;;;;;4990042;28;20050;-74
2022/09/02 01:08:56;;;;;;;22.25;20.75;;;13.80;99.90;;;;;;5011167;28;20049;-75
2022/09/02 01:11:26;;;;;;;25.45;21.70;;;13.80;99.90;;;;;;4990408;28;20046;-74
2022/09/02 01:13:53;;;;;;;22.85;21.13;;;13.80;99.90;;;;;;4979292;28;20127;-74
2022/09/02 01:16:38;;;;;;;22.13;20.73;;;13.80;99.90;;;;;;5003828;28;20066;-74
2022/09/02 01:19:21;;;;;;;22.10;20.58;;;13.80;99.90;;;;;;5004242;28;20049;-74
2022/09/02 01:21:54;;;;;;;22.30;20.80;;;13.70;99.90;;;;;;4998101;28;20095;-74
2022/09/02 01:24:24;;;;;;;22.13;20.73;;;13.80;99.90;;;;;;4972709;28;20045;-75
2022/09/02 01:26:53;;;;;;;22.48;21.08;;;13.70;99.90;;;;;;4968094;28;20204;-72
2022/09/02 01:29:21;;;;;;;22.73;21.30;;;13.70;99.90;;;;;;4986908;28;20556;-75
2022/09/02 01:31:48;;;;;;;22.38;20.98;;;13.70;99.90;;;;;;4985629;28;20406;-75
2022/09/02 01:34:16;;;;;;;22.27;20.88;;;13.80;99.90;;;;;;4983101;28;20354;-72
2022/09/02 01:36:43;;;;;;;22.73;21.23;;;13.70;99.90;;;;;;4985250;28;20331;-74
2022/09/02 01:39:12;;;;;;;23.00;21.45;;;13.70;99.90;;;;;;4984964;28;20041;-75
2022/09/02 01:41:39;;;;;;;23.10;21.20;;;13.80;99.90;;;;;;4982702;28;20065;-74
2022/09/02 01:44:06;;;;;;;22.35;20.77;;;13.80;99.90;;;;;;4970246;28;20447;-75
2022/09/02 01:46:35;;;;;;;22.65;21.05;;;13.70;99.90;;;;;;4983766;28;20042;-74
2022/09/02 01:49:02;;;;;;;22.30;20.88;;;13.70;99.90;;;;;;4981150;28;20066;-74
2022/09/02 01:51:30;;;;;;;23.13;21.50;;;13.70;99.90;;;;;;4984480;28;20583;-74
2022/09/02 01:53:58;;;;;;;22.75;21.33;;;13.70;99.90;;;;;;4991382;28;20515;-74
2022/09/02 01:56:24;;;;;;;23.05;21.35;;;13.70;99.90;;;;;;4980627;28;20500;-75
2022/09/02 01:58:51;;;;;;;23.15;21.50;;;13.70;99.90;;;;;;4991891;28;20435;-73
2022/09/02 02:01:19;;;;;;;22.42;20.92;;;13.70;99.90;;;;;;4984408;28;20470;-74
2022/09/02 02:03:46;;;;;;;23.00;21.30;;;13.70;99.90;;;;;;4990814;28;20042;-74
2022/09/02 02:06:16;;;;;;;22.70;21.20;;;13.70;99.90;;;;;;4983502;28;20033;-73
2022/09/02 02:08:45;;;;;;;23.40;21.52;;;13.70;99.90;;;;;;4969310;28;20309;-75
2022/09/02 02:11:19;;;;;;;22.45;20.88;;;13.70;99.90;;;;;;4975489;28;20068;-74
2022/09/02 02:13:49;;;;;;;22.48;20.98;;;13.60;99.90;;;;;;4987612;28;20072;-75
2022/09/02 02:16:20;;;;;;;22.05;20.65;;;13.60;99.90;;;;;;4973115;28;20038;-74
2022/09/02 02:18:47;;;;;;;22.52;21.05;;;13.60;99.90;;;;;;4999734;28;20037;-75
2022/09/02 02:21:13;;;;;;;22.92;21.15;;;13.60;99.90;;;;;;4983517;28;20632;-74
2022/09/02 02:23:40;;;;;;;22.48;20.88;;;13.70;99.90;;;;;;5010319;28;20128;-72
2022/09/02 02:26:08;;;;;;;22.40;21.00;;;13.70;99.90;;;;;;4987128;28;20138;-74
2022/09/02 02:28:36;;;;;;;23.23;21.42;;;13.60;99.90;;;;;;4979304;28;20209;-76
2022/09/02 02:31:04;;;;;;;22.55;21.02;;;13.70;99.90;;;;;;4989845;28;20052;-74
2022/09/02 02:33:32;;;;;;;23.10;21.58;;;13.60;99.90;;;;;;4996592;28;20041;-72
2022/09/02 02:36:05;;;;;;;22.92;21.27;;;13.60;99.90;;;;;;4977497;28;20169;-73
2022/09/02 02:38:36;;;;;;;23.00;21.10;;;13.60;99.90;;;;;;4975877;28;20041;-75
2022/09/02 02:41:05;;;;;;;22.67;21.17;;;13.60;99.90;;;;;;4990927;28;20577;-72
2022/09/02 02:43:33;;;;;;;22.42;20.92;;;13.60;99.90;;;;;;4984795;28;20042;-74
2022/09/02 02:45:59;;;;;;;22.60;21.10;;;13.60;99.90;;;;;;4977565;28;20049;-74
2022/09/02 02:48:27;;;;;;;22.60;21.10;;;13.60;99.90;;;;;;4986977;28;20341;-75
2022/09/02 02:50:54;;;;;;;22.48;20.92;;;13.60;99.90;;;;;;4984813;28;20065;-74
2022/09/02 02:53:21;;;;;;;22.35;20.85;;;13.50;99.90;;;;;;4980221;28;20052;-74
2022/09/02 02:55:48;;;;;;;23.02;21.17;;;13.60;99.90;;;;;;4985027;28;20042;-74
2022/09/02 02:58:17;;;;;;;22.52;21.02;;;13.50;99.90;;;;;;4967355;28;20050;-74
2022/09/02 03:00:46;;;;;;;22.45;20.98;;;13.60;99.90;;;;;;4976667;28;20464;-72
2022/09/02 03:03:18;;;;;;;22.40;20.73;;;13.50;99.90;;;;;;4976420;28;20068;-74
2022/09/02 03:05:48;;;;;;;22.10;20.70;;;13.50;99.90;;;;;;4995316;28;20546;-75
2022/09/02 03:08:19;;;;;;;22.55;20.83;;;13.50;99.90;;;;;;4970970;28;20072;-74
2022/09/02 03:10:52;;;;;;;22.50;20.90;;;13.50;99.90;;;;;;4967208;28;20046;-74
2022/09/02 03:13:21;;;;;;;21.85;20.35;;;13.50;99.90;;;;;;5515684;23;20052;-75
2022/09/02 03:15:49;;;;;;;22.08;20.58;;;13.50;99.90;;;;;;6019440;23;20079;-75
2022/09/02 03:18:18;;;;;;;22.15;20.75;;;13.50;99.90;;;;;;6042032;23;20032;-75
2022/09/02 03:20:46;;;;;;;22.13;20.65;;;13.40;99.90;;;;;;6021285;23;20040;-75
2022/09/02 03:23:14;;;;;;;22.17;20.83;;;13.50;99.90;;;;;;6046238;23;20234;-75
2022/09/02 03:25:45;;;;;;;22.58;21.00;;;13.60;99.90;;;;;;6004029;23;20187;-75
2022/09/02 03:28:32;;;;;;;22.42;20.88;;;13.50;99.90;;;;;;6036538;23;20419;-75
2022/09/02 03:31:00;;;;;;;22.52;20.80;;;13.50;99.90;;;;;;5993968;23;20517;-75
2022/09/02 03:33:27;;;;;;;22.83;21.00;;;13.50;99.90;;;;;;6016051;23;20068;-76
2022/09/02 03:35:55;;;;;;;22.42;20.88;;;13.50;99.90;;;;;;6017867;23;20525;-76
2022/09/02 03:38:23;;;;;;;22.30;20.50;;;13.50;99.90;;;;;;6021011;23;20041;-75
2022/09/02 03:40:50;;;;;;;22.65;20.75;;;13.50;99.90;;;;;;6014467;23;20454;-75
2022/09/02 03:43:17;;;;;;;21.42;20.02;;;13.50;99.90;;;;;;6007054;23;20032;-75
2022/09/02 03:45:45;;;;;;;22.67;20.88;;;13.50;99.90;;;;;;6035756;23;20367;-75
2022/09/02 03:48:13;;;;;;;21.42;20.13;;;13.50;99.90;;;;;;6017338;23;20040;-75
2022/09/02 03:50:43;;;;;;;21.88;20.48;;;13.40;99.90;;;;;;6017291;23;20052;-75
2022/09/02 03:53:15;;;;;;;21.95;20.30;;;13.40;99.90;;;;;;5996047;23;20089;-75
2022/09/02 03:55:46;;;;;;;22.10;20.70;;;13.40;99.90;;;;;;6021392;23;20275;-74
2022/09/02 03:58:16;;;;;;;21.77;20.38;;;13.40;99.90;;;;;;6025884;23;20032;-75
2022/09/02 04:00:53;;;;;;;22.25;20.85;;;13.40;99.90;;;;;;6009499;23;20096;-74
2022/09/02 04:03:21;;;;;;;21.75;20.15;;;13.40;99.90;;;;;;6006445;23;20490;-74
2022/09/02 04:05:51;;;;;;;22.23;20.58;;;13.40;99.90;;;;;;6000801;23;20033;-74
2022/09/02 04:08:18;;;;;;;22.55;21.00;;;13.40;99.90;;;;;;6017551;23;20533;-74
2022/09/02 04:10:46;;;;;;;21.83;20.25;;;13.30;99.90;;;;;;6022576;23;20445;-74
2022/09/02 04:13:13;;;;;;;22.73;21.05;;;13.30;99.90;;;;;;6007106;23;20040;-74
2022/09/02 04:15:43;;;;;;;21.90;20.48;;;13.30;99.90;;;;;;6029215;23;20033;-74
2022/09/02 04:18:11;;;;;;;22.63;20.92;;;13.30;99.90;;;;;;6040327;23;20033;-74
2022/09/02 04:20:38;;;;;;;22.17;20.77;;;13.30;99.90;;;;;;6037880;23;20090;-74
2022/09/02 04:23:05;;;;;;;21.52;20.23;;;13.30;99.90;;;;;;6011375;23;20396;-74
2022/09/02 04:25:36;;;;;;;21.92;20.42;;;13.30;99.90;;;;;;6011292;23;20033;-74
2022/09/02 04:28:03;;;;;;;22.20;20.80;;;13.20;99.90;;;;;;6018161;23;20511;-74
2022/09/02 04:30:30;;;;;;;23.30;21.83;;;13.20;99.90;;;;;;6017507;23;20406;-75
2022/09/02 04:32:57;;;;;;;23.08;21.25;;;13.30;99.90;;;;;;6021169;23;20108;-74
2022/09/02 04:35:24;;;;;;;21.80;20.30;;;13.30;99.90;;;;;;6040432;23;20189;-75
2022/09/02 04:37:51;;;;;;;21.98;20.48;;;13.30;99.90;;;;;;6012142;23;20052;-75
2022/09/02 04:40:19;;;;;;;21.60;20.25;;;13.30;99.90;;;;;;5990241;23;20080;-75
2022/09/02 04:42:47;;;;;;;21.80;20.38;;;13.20;99.90;;;;;;6028784;23;20032;-75
2022/09/02 04:45:14;;;;;;;22.33;20.70;;;13.20;99.90;;;;;;6007468;23;20061;-74
2022/09/02 04:47:42;;;;;;;22.38;20.95;;;13.20;99.90;;;;;;5996023;23;20039;-74
2022/09/02 04:50:13;;;;;;;22.95;21.30;;;13.20;99.90;;;;;;6017101;23;20041;-75
2022/09/02 04:52:56;;;;;;;24.38;22.88;;;13.20;99.90;;;;;;6013918;23;20403;-74
2022/09/02 04:55:24;;;;;;;24.85;23.25;;;13.20;99.90;;;;;;6016596;23;20046;-74
2022/09/02 04:57:51;;;;;;;24.10;22.40;;;13.30;99.90;;;;;;5997510;23;20033;-74
2022/09/02 05:00:19;;;;;;;24.98;23.20;;;13.30;99.90;;;;;;5985364;23;20063;-74
2022/09/02 05:02:47;;;;;;;24.90;23.40;;;13.30;99.90;;;;;;6031783;23;20037;-75
2022/09/02 05:05:14;;;;;;;25.30;23.48;;;13.30;99.90;;;;;;5999835;23;20029;-75
2022/09/02 05:07:41;;;;;;;25.27;23.67;;;13.30;99.90;;;;;;6037674;23;20028;-74
2022/09/02 05:10:08;;;;;;;25.80;23.92;;;13.40;99.90;;;;;;6039261;23;20037;-74
2022/09/02 05:12:39;;;;;;;23.55;22.05;;;13.40;99.90;;;;;;6008197;23;20483;-74
2022/09/02 05:15:08;;;;;;;25.05;23.52;;;13.40;99.90;;;;;;6011952;23;20044;-74
2022/09/02 05:17:36;;;;;;;24.77;23.27;;;13.40;99.90;;;;;;6030109;23;20749;-74
2022/09/02 05:20:07;;;;;;;24.25;22.65;;;13.40;99.90;;;;;;6016795;23;20406;-74
2022/09/02 05:22:36;;;;;;;24.42;22.92;;;13.40;99.90;;;;;;6013227;23;20040;-74
2022/09/02 05:25:07;;;;;;;25.20;23.38;;;13.40;99.90;;;;;;5996447;23;20440;-74
2022/09/02 05:27:35;;;;;;;25.25;23.63;;;13.40;99.90;;;;;;6041156;23;20214;-74
2022/09/02 05:30:04;;;;;;;24.52;22.83;;;13.50;99.90;;;;;;5984437;23;20032;-74
2022/09/02 05:32:33;;;;;;;24.55;23.15;;;13.50;99.90;;;;;;6022458;23;20115;-75
2022/09/02 05:35:04;;;;;;;23.92;22.05;;;13.50;99.90;;;;;;6018132;23;20043;-73
2022/09/02 05:37:34;;;;;;;23.88;22.38;;;13.50;99.90;;;;;;6020111;23;20131;-74
2022/09/02 05:40:05;;;;;;;24.50;22.70;;;13.50;99.90;;;;;;6018668;23;20426;-74
2022/09/02 05:42:36;;;;;;;23.95;22.40;;;13.50;99.90;;;;;;6012123;23;20029;-74
2022/09/02 05:45:05;;;;;;;23.77;22.35;;;13.50;99.90;;;;;;6020945;23;20118;-74
2022/09/02 05:47:35;;;;;;;24.40;22.90;;;13.50;99.90;;;;;;6013119;23;20045;-74
2022/09/02 05:50:03;;;;;;;23.70;22.17;;;13.40;99.90;;;;;;6004575;23;20029;-74
2022/09/02 05:52:35;;;;;;;23.70;22.30;;;13.50;99.90;;;;;;6013758;23;20037;-74
2022/09/02 05:55:02;;;;;;;25.65;23.92;;;13.40;99.90;;;;;;6009364;23;20039;-74
2022/09/02 05:57:31;;;;;;;23.17;21.48;;;13.40;99.90;;;;;;5996026;23;20036;-74
2022/09/02 06:00:06;;;;;;;23.70;22.10;;;13.40;99.90;;;;;;5993294;23;20505;-74
2022/09/02 06:02:48;;;;;;;24.17;22.52;;;13.50;99.90;;;;;;5995958;23;20033;-74
2022/09/02 06:05:37;;;;;;;23.90;22.55;;;13.50;99.90;;;;;;5992153;23;20037;-74
2022/09/02 06:08:13;;;;;;;24.27;22.77;;;13.50;99.90;;;;;;6014804;23;20297;-74
2022/09/02 06:10:42;;;;;;;23.25;21.73;;;13.50;99.90;;;;;;6012014;23;20491;-74
2022/09/02 06:13:11;;;;;;;22.88;21.48;;;13.60;99.90;;;;;;6017019;23;20025;-74
2022/09/02 06:15:42;;;;;;;23.02;21.45;;;13.70;99.90;;;;;;6019865;23;20474;-75
2022/09/02 06:18:10;;;;;;;24.23;22.63;;;13.80;99.90;;;;;;6015731;23;20040;-74
2022/09/02 06:20:41;;;;;;;24.75;23.15;;;13.70;99.90;;;;;;6018442;23;20040;-74
2022/09/02 06:23:09;;;;;;;24.52;23.02;;;13.80;99.90;;;;;;6030316;23;20527;-74
2022/09/02 06:25:40;;;;;;;23.50;22.02;;;13.90;99.90;;;;;;6014926;23;20038;-74
2022/09/02 06:28:08;;;;;;;24.48;22.88;;;13.90;99.90;;;;;;6019223;23;20043;-74
2022/09/02 06:30:41;;;;;;;24.08;22.67;;;13.90;99.90;;;;;;6017386;23;20032;-75
2022/09/02 06:33:09;;;;;;;23.98;22.48;;;13.90;99.90;;;;;;6021233;23;20104;-74
2022/09/02 06:35:41;;;;;;;24.13;22.63;;;14.00;99.90;;;;;;6010114;23;20265;-75
2022/09/02 06:38:12;;;;;;;24.10;22.60;;;13.90;99.90;;;;;;6004486;23;20482;-74
2022/09/02 06:40:49;;;;;;;24.05;22.48;;;13.90;99.90;;;;;;6008949;23;20041;-74
2022/09/02 06:43:19;;;;;;;24.58;22.98;;;13.90;99.90;;;;;;6005644;23;20099;-75
2022/09/02 06:45:56;;;;;;;23.38;21.67;;;13.90;99.90;;;;;;6016560;23;20056;-75
2022/09/02 06:48:23;;;;;;;24.05;22.63;;;14.00;99.90;;;;;;6014073;23;20051;-75
2022/09/02 06:50:50;;;;;;;24.30;22.70;;;14.10;99.90;;;;;;6017244;23;20368;-74
2022/09/02 06:53:18;;;;;;;23.35;21.95;;;14.10;99.90;;;;;;5991107;23;20647;-75
2022/09/02 06:55:45;;;;;;;23.88;22.48;;;14.20;99.90;;;;;;5992226;23;20037;-75
2022/09/02 06:58:13;;;;;;;24.35;22.83;;;14.40;99.90;;;;;;6010377;23;20040;-74
2022/09/02 07:00:41;;;;;;;23.77;22.27;;;14.50;99.90;;;;;;6033234;23;20025;-74
2022/09/02 07:06:08;;;;;;;25.85;23.85;;;14.80;99.90;;;;;;6020704;23;20699;-75
2022/09/02 07:08:41;;;;;;;24.50;22.90;;;14.80;99.90;;;;;;6006416;23;20450;-75
2022/09/02 07:11:24;;;;;;;24.75;23.33;;;14.90;99.90;;;;;;6014085;23;20031;-74
2022/09/02 07:13:53;;;;;;;24.60;23.20;;;15.10;99.90;;;;;;6014722;23;20025;-75
2022/09/02 07:16:21;;;;;;;23.90;22.30;;;15.20;99.90;;;;;;5992104;23;20055;-75
2022/09/02 07:18:53;;;;;;;23.67;22.25;;;15.30;99.90;;;;;;5983964;23;20033;-75
2022/09/02 07:21:21;;;;;;;24.05;22.65;;;15.50;99.90;;;;;;6034113;23;20049;-75
2022/09/02 07:23:48;;;;;;;23.58;22.27;;;15.90;99.90;;;;;;6010436;23;20261;-74
2022/09/02 07:26:16;;;;;;;23.65;22.30;;;16.40;99.90;;;;;;6015156;23;20179;-78
2022/09/02 07:28:45;;;;;;;23.85;22.45;;;16.70;99.90;;;;;;6005820;23;20131;-77
2022/09/02 07:31:15;;;;;;;23.40;22.05;;;16.90;99.90;;;;;;6036497;23;20043;-78
2022/09/02 07:33:43;;;;;;;24.00;22.50;;;17.00;99.90;;;;;;6000148;23;20499;-76
2022/09/02 07:36:15;;;;;;;24.27;22.80;;;16.90;99.90;;;;;;6006935;23;20043;-77
2022/09/02 07:38:43;;;;;;;24.25;22.83;;;16.90;99.90;;;;;;6020275;23;20124;-76
2022/09/02 07:41:12;;;;;;;23.90;22.48;;;17.00;99.90;;;;;;6015716;23;20373;-78
2022/09/02 07:43:40;;;;;;;23.80;22.50;;;16.80;99.90;;;;;;5990552;23;20025;-76
2022/09/02 07:46:07;;;;;;;24.88;23.05;;;16.80;99.90;;;;;;6015291;23;20656;-78
2022/09/02 07:48:36;;;;;;;22.77;21.48;;;16.70;99.90;;;;;;5994167;23;20033;-77
2022/09/02 07:51:04;;;;;;;24.17;22.20;;;16.90;99.90;;;;;;6013342;23;20036;-78
2022/09/02 07:53:31;;;;;;;23.83;22.25;;;17.20;99.90;;;;;;6015159;23;20495;-77
2022/09/02 07:56:00;;;;;;;24.00;22.40;;;17.60;99.90;;;;;;6020814;23;20087;-77
2022/09/02 07:58:28;;;;;;;23.63;21.95;;;17.50;99.90;;;;;;6024146;23;20351;-76
2022/09/02 08:00:59;;;;;;;25.13;23.42;;;17.60;99.90;;;;;;6020706;23;20032;-77
2022/09/02 08:03:26;;;;;;;24.65;22.63;;;17.50;99.90;;;;;;6026337;23;20030;-78
2022/09/02 08:05:56;;;;;;;23.77;22.08;;;17.20;99.90;;;;;;6017196;23;20844;-76
2022/09/02 08:08:25;;;;;;;23.23;21.83;;;17.10;99.90;;;;;;6044603;23;20450;-77
2022/09/02 08:10:53;;;;;;;23.55;22.05;;;17.20;99.90;;;;;;6038447;23;20120;-77
2022/09/02 08:13:21;;;;;;;25.00;23.60;;;17.40;99.90;;;;;;6002568;23;20194;-77
2022/09/02 08:15:53;;;;;;;26.15;24.63;;;17.60;99.90;;;;;;6043046;23;20448;-77
2022/09/02 08:18:20;;;;;;;24.75;23.35;;;17.70;99.90;;;;;;6034017;23;20036;-76
2022/09/02 08:20:48;;;;;;;26.63;24.98;;;17.70;99.90;;;;;;6024313;23;20025;-76
2022/09/02 08:23:15;;;;;;;26.02;24.25;;;17.80;99.90;;;;;;6042630;23;20040;-76
2022/09/02 08:25:59;;;;;;;25.20;23.70;;;17.90;99.90;;;;;;6037919;23;20124;-77
2022/09/02 08:28:26;;;;;;;25.55;23.75;;;18.00;99.90;;;;;;6030222;23;20028;-77
2022/09/02 08:30:56;;;;;;;26.08;24.48;;;18.10;99.90;;;;;;6017841;23;20032;-77
2022/09/02 08:33:24;;;;;;;27.45;25.77;;;18.10;99.90;;;;;;6015124;23;20041;-77
2022/09/02 08:35:50;;;;;;;25.00;23.38;;;18.20;99.90;;;;;;6045395;23;20350;-77
2022/09/02 08:38:17;;;;;;;26.17;24.45;;;18.50;99.90;;;;;;6000898;23;20087;-77
2022/09/02 08:40:44;;;;;;;26.70;25.10;;;18.60;99.90;;;;;;6017655;23;20230;-74
2022/09/02 08:43:23;;;;;;;26.30;24.60;;;18.80;99.90;;;;;;6038222;23;20115;-74
2022/09/02 08:45:53;;;;;;;25.45;23.85;;;18.80;99.90;;;;;;6030164;23;20560;-75
2022/09/02 08:48:29;;;;;;;27.02;25.15;;;18.90;99.90;;;;;;6019688;23;20037;-74
2022/09/02 08:51:03;;;;;;;27.83;26.05;;;19.10;99.90;;;;;;6034712;23;20025;-73
2022/09/02 08:53:45;;;;;;;25.98;24.45;;;19.20;99.90;;;;;;6034384;23;20087;-74
2022/09/02 08:56:15;;;;;;;24.20;22.73;;;19.50;99.90;;;;;;6013012;23;20037;-74
2022/09/02 08:58:46;;;;;;;26.30;24.60;;;19.50;99.90;;;;;;5996496;23;20037;-74
2022/09/02 09:01:40;;;;;;;27.52;25.98;;;19.40;99.90;;;;;;6036969;23;21225;-74
2022/09/02 09:04:22;;;;;;;27.45;25.70;;;19.40;99.90;;;;;;6027026;23;20033;-74
2022/09/02 09:07:03;;;;;;;26.08;24.50;;;19.60;99.90;;;;;;6040967;23;20028;-74
2022/09/02 09:09:50;;;;;;;27.40;25.80;;;19.70;99.90;;;;;;6030407;23;20039;-74
2022/09/02 09:12:41;;;;;;;29.33;27.63;;;19.50;99.90;;;;;;6008680;23;20091;-73
2022/09/02 09:15:29;;;;;;;28.98;27.08;;;19.50;99.90;;;;;;5188987;23;20131;-70
2022/09/02 09:17:59;;;;;;;29.73;27.67;;;19.70;99.90;;;;;;5009608;28;20187;-71
2022/09/02 09:20:36;;;;;;;30.50;28.67;;;19.90;99.90;;;;;;5029574;28;20037;-71
2022/09/02 09:23:26;;;;;;;30.50;28.33;;;20.10;99.90;;;;;;5025182;28;20087;-71
2022/09/02 09:26:04;;;;;;;29.13;27.42;;;19.80;99.90;;;;;;5012224;28;20132;-71
2022/09/02 09:28:30;;;;;;;29.50;27.73;;;20.30;99.90;;;;;;5011170;28;20380;-71
2022/09/02 09:31:00;;;;;;;28.13;26.45;;;20.40;99.90;;;;;;5011493;28;20040;-71
2022/09/02 09:33:26;;;;;;;29.40;27.67;;;20.50;99.90;;;;;;4991730;28;20049;-72
2022/09/02 09:35:55;;;;;;;28.35;26.65;;;20.60;99.90;;;;;;4995420;28;20152;-72
2022/09/02 09:38:35;;;;;;;29.42;27.30;;;20.80;99.90;;;;;;5012198;28;20557;-72
2022/09/02 09:41:19;;;;;;;29.25;27.45;;;21.00;99.90;;;;;;5012129;28;20680;-71
2022/09/02 09:43:46;;;;;;;27.33;25.73;;;21.00;99.90;;;;;;5010954;28;20044;-71
2022/09/02 09:46:29;;;;;;;29.02;27.33;;;20.60;99.90;;;;;;5012017;28;20123;-71
2022/09/02 09:48:55;;;;;;;27.77;26.17;;;20.30;99.90;;;;;;5011738;28;20096;-71
2022/09/02 09:51:22;;;;;;;29.50;27.70;;;20.10;99.90;;;;;;5004502;28;20338;-72
2022/09/02 09:53:50;;;;;;;31.05;29.15;;;20.40;99.90;;;;;;5011731;28;20123;-72
2022/09/02 09:56:20;;;;;;;30.52;28.73;;;20.60;99.90;;;;;;5011493;28;20123;-72
2022/09/02 09:58:48;;;;;;;28.73;26.92;;;20.60;99.90;;;;;;5012984;28;20045;-72
2022/09/02 10:01:19;;;;;;;29.60;27.48;;;21.10;99.90;;;;;;4993469;28;20050;-72
2022/09/02 10:03:56;;;;;;;30.00;28.17;;;21.30;99.90;;;;;;5009705;28;20140;-72
2022/09/02 10:06:30;;;;;;;31.25;29.35;;;21.40;99.90;;;;;;5011869;28;20648;-72
2022/09/02 10:09:21;;;;;;;30.15;28.25;;;21.20;99.90;;;;;;5013098;28;20052;-72
2022/09/02 10:12:10;;;;;;;30.05;28.15;;;21.30;99.90;;;;;;4998285;28;20099;-72
2022/09/02 10:14:46;;;;;;;29.17;27.27;;;21.60;99.90;;;;;;5008725;28;20215;-73
2022/09/02 10:17:32;;;;;;;29.17;27.38;;;21.90;99.90;;;;;;4993252;28;20045;-73
2022/09/02 10:20:06;;;;;;;28.88;27.08;;;22.10;99.90;;;;;;4997112;28;20045;-72
2022/09/02 10:22:41;;;;;;;29.03;27.07;;;22.50;99.90;;;;;;4992563;28;20109;-72
2022/09/02 10:26:04;;;;;;;29.55;27.48;;;22.00;99.90;;;;;;5007960;28;20052;-73
2022/09/02 10:29:09;;;;;;;29.17;27.38;;;22.10;99.90;;;;;;5010904;28;20061;-72
2022/09/02 10:32:34;;;;;;;28.30;26.45;;;21.80;99.90;;;;;;5004706;28;20041;-73
2022/09/02 10:35:07;;;;;;;28.70;26.85;;;21.90;99.90;;;;;;4990694;28;20290;-73
2022/09/02 10:38:02;;;;;;;29.23;27.33;;;22.30;99.90;;;;;;5011060;28;20504;-74
2022/09/02 10:40:43;;;;;;;31.30;29.27;;;22.60;99.90;;;;;;4979921;28;20049;-74
2022/09/02 10:43:23;;;;;;;30.27;28.58;;;22.30;99.90;;;;;;5008558;28;20045;-74
2022/09/02 10:45:58;;;;;;;29.90;28.10;;;22.20;99.90;;;;;;5008643;28;20281;-74
2022/09/02 10:48:44;;;;;;;29.85;27.95;;;22.20;99.90;;;;;;5011900;28;20053;-74
2022/09/02 10:51:32;;;;;;;31.25;29.42;;;22.50;99.90;;;;;;5007814;28;20053;-75
2022/09/02 10:54:02;;;;;;;30.58;28.67;;;23.20;99.90;;;;;;5008706;28;20037;-74
2022/09/02 10:56:34;;;;;;;31.63;29.67;;;23.40;99.90;;;;;;5011880;28;20045;-74
2022/09/02 10:59:12;;;;;;;32.92;30.83;;;23.40;99.90;;;;;;4998515;28;20274;-74
2022/09/02 11:01:51;;;;;;;32.85;30.48;;;23.50;99.90;;;;;;5007975;28;20038;-74
2022/09/02 11:04:26;;;;;;;32.95;30.90;;;23.40;99.90;;;;;;4991874;28;20045;-74
2022/09/02 11:06:56;;;;;;;32.25;30.35;;;23.50;99.90;;;;;;4998208;28;20029;-74
2022/09/02 11:09:54;;;;;;;29.20;27.45;;;23.50;99.90;;;;;;5012558;28;20576;-74
2022/09/02 11:12:31;;;;;;;33.35;31.27;;;23.50;99.90;;;;;;4990196;28;20049;-75
2022/09/02 11:15:19;;;;;;;29.38;27.58;;;23.30;99.90;;;;;;5013142;28;20114;-73
2022/09/02 11:17:57;;;;;;;31.05;29.25;;;23.40;99.90;;;;;;4983105;28;20041;-72
2022/09/02 11:20:43;;;;;;;30.52;28.63;;;23.20;99.90;;;;;;5013476;28;20076;-72
2022/09/02 11:23:33;;;;;;;29.52;27.83;;;22.70;99.90;;;;;;4994112;28;20115;-73
2022/09/02 11:26:22;;;;;;;28.20;26.40;;;22.40;99.90;;;;;;5013800;28;20042;-74
2022/09/02 11:29:04;;;;;;;29.15;27.45;;;22.00;99.90;;;;;;5004577;28;20199;-73
2022/09/02 11:31:33;;;;;;;30.52;28.63;;;22.00;99.90;;;;;;5012604;28;20066;-73
2022/09/02 11:34:34;;;;;;;28.65;27.05;;;21.90;99.90;;;;;;5012471;28;20049;-73
2022/09/02 11:37:04;;;;;;;28.70;27.02;;;22.00;99.90;;;;;;4983348;28;20033;-73
2022/09/02 11:39:41;;;;;;;30.98;28.83;;;22.00;99.90;;;;;;5011551;28;20060;-73
2022/09/02 11:42:46;;;;;;;28.75;26.85;;;22.20;99.90;;;;;;4994316;28;20582;-72
2022/09/02 11:45:34;;;;;;;28.55;26.65;;;22.60;99.90;;;;;;5013147;28;20304;-75
2022/09/02 11:48:38;;;;;;;27.80;26.27;;;22.40;99.90;;;;;;4997909;28;20054;-74
2022/09/02 11:51:34;;;;;;;28.42;26.65;;;22.30;99.90;;;;;;5012010;28;20046;-74
2022/09/02 11:54:03;;;;;;;28.42;26.63;;;21.80;99.90;;;;;;5015039;28;20099;-73
2022/09/02 11:56:38;;;;;;;28.70;26.80;;;21.80;99.90;;;;;;5014717;28;20042;-74
2022/09/02 11:59:06;;;;;;;;;;;21.80;99.90;;;;;;4997404;28;20053;-72
2022/09/02 12:01:38;;;;;;;29.38;26.98;;;21.80;99.90;;;;;;4997470;28;19955;-73
2022/09/02 12:04:12;;;;;;;28.30;26.58;;;21.80;99.90;;;;;;5005594;28;20046;-73
2022/09/02 12:07:05;;;;;;;30.02;28.10;;;21.70;99.90;;;;;;5015911;28;20396;-74
2022/09/02 12:09:51;;;;;;;28.70;27.02;;;21.60;99.90;;;;;;4985207;28;20048;-74
2022/09/02 12:12:40;;;;;;;29.60;27.60;;;21.60;99.90;;;;;;5018766;28;20061;-74
2022/09/02 12:15:16;;;;;;;28.55;26.63;;;21.50;99.90;;;;;;4999387;28;20064;-74
2022/09/02 12:17:49;;;;;;;28.58;26.88;;;21.70;99.90;;;;;;4995174;28;20249;-75
2022/09/02 12:20:35;;;;;;;28.25;26.55;;;21.80;99.90;;;;;;5006361;28;20240;-75
2022/09/02 12:23:02;;;;;;;30.00;28.20;;;21.60;99.90;;;;;;4997540;28;20045;-75
2022/09/02 12:25:32;;;;;;;29.38;27.67;;;21.70;99.90;;;;;;5013148;28;20272;-74
2022/09/02 12:28:24;;;;;;;28.35;26.55;;;21.90;99.90;;;;;;5016493;28;20060;-75
2022/09/02 12:31:00;;;;;;;28.95;27.08;;;22.10;99.90;;;;;;5003281;28;20049;-75
2022/09/02 12:33:39;;;;;;;31.75;29.73;;;22.40;99.90;;;;;;4996887;28;20045;-75
2022/09/02 12:36:08;;;;;;;28.17;26.33;;;22.30;99.90;;;;;;4993030;28;20065;-75
2022/09/02 12:38:39;;;;;;;30.15;28.25;;;22.50;99.90;;;;;;5000170;28;20045;-75
2022/09/02 12:41:11;;;;;;;28.73;27.00;;;22.80;99.90;;;;;;5014272;28;20113;-75
2022/09/02 12:43:43;;;;;;;27.30;25.55;;;23.10;99.40;;;;;;5010766;28;20562;-75
2022/09/02 12:46:23;;;;;;;28.83;27.02;;;23.30;99.70;;;;;;4990188;28;20041;-74
2022/09/02 12:49:17;;;;;;;31.52;29.45;;;22.80;99.90;;;;;;4997147;28;20050;-74
2022/09/02 12:52:00;;;;;;;30.85;29.05;;;22.20;99.90;;;;;;5010369;28;20481;-74
2022/09/02 12:54:36;;;;;;;30.85;29.02;;;22.70;99.90;;;;;;4995438;28;20128;-74
2022/09/02 12:57:04;;;;;;;30.58;28.55;;;22.80;99.90;;;;;;5015780;28;20503;-74
2022/09/02 12:59:32;;;;;;;30.67;28.77;;;22.60;99.90;;;;;;4995413;28;20042;-73